Cove Creek, Virginia
Current Conditions -  °F | °C
As of 9:29 PM on Saturday 20 Dec 2014 (Local Time) from KBLF Reporting Station
Light Snow Light Snow  
Wind Chill: 34°   Ceiling: 300
Heat Index: 34°   Visibility: 3mi
Dew Point: 30°   Wind: 3mph
Humidity: 85%   Direction: 260°W
Pressure: 30.19"   Gusts: NA
Location:  37.1593°N, 81.1986°W
Report Text: KBLF 210229Z AUTO 26003KT 3SM -SN BR BKN003 BKN032 OVC044 01/M01 A3019 RMK AO2 P0000 T00111011
Loading
Personal Weather Stations






























Interactive Weather Map New forecast layout! Learn more

10-Day Weather Forecast

Advertisements
Track Severe Weather on mobile